Time;durP1;ratioP1;P1;durP2;ratioP2;P2;SDS_P1;SDS_P2;PMS_P1;PMS_P2;Temp;Humidity;BMP_temperature;BMP_pressure;BME280_temperature;BME280_humidity;BME280_pressure;Samples;Min_cycle;Max_cycle;Signal;HPM_P1;HPM_P2
2021/11/07 00:02:40;;;;;;;139.52;31.30;;;-0.30;99.90;;;;;;4986883;28;20054;-88
2021/11/07 00:05:31;;;;;;;83.87;24.37;;;-0.40;99.90;;;;;;4988863;28;20079;-89
2021/11/07 00:08:36;;;;;;;95.22;28.23;;;-0.60;99.90;;;;;;4988970;28;20046;-89
2021/11/07 00:11:38;;;;;;;96.32;26.60;;;-0.60;99.90;;;;;;5001231;28;20042;-89
2021/11/07 00:14:27;;;;;;;64.47;20.33;;;-0.60;99.90;;;;;;4983012;28;20049;-90
2021/11/07 00:17:31;;;;;;;90.53;28.33;;;-0.30;99.90;;;;;;4984185;28;20055;-88
2021/11/07 00:20:23;;;;;;;87.15;25.88;;;-0.10;99.90;;;;;;4977527;28;20050;-90
2021/11/07 00:23:31;;;;;;;85.10;28.33;;;0.00;99.90;;;;;;4988000;28;20103;-89
2021/11/07 00:29:22;;;;;;;82.93;26.27;;;-0.10;99.90;;;;;;4971243;28;20098;-90
2021/11/07 00:38:17;;;;;;;147.77;29.63;;;-0.20;99.90;;;;;;5041817;28;20067;-88
2021/11/07 00:45:10;;;;;;;175.30;32.40;;;-0.20;99.90;;;;;;5050693;28;20101;-89
2021/11/07 00:50:15;;;;;;;124.50;30.05;;;-0.10;99.90;;;;;;5053749;28;20049;-90
2021/11/07 00:53:21;;;;;;;232.68;38.28;;;-0.10;99.90;;;;;;5038374;28;20065;-89
2021/11/07 00:56:32;;;;;;;234.18;41.30;;;0.00;99.90;;;;;;5050163;28;20033;-90
2021/11/07 01:02:29;;;;;;;316.55;49.53;;;0.30;99.90;;;;;;5048966;28;20046;-89
2021/11/07 01:05:24;;;;;;;289.08;48.00;;;0.30;99.90;;;;;;5032583;28;20077;-89
2021/11/07 01:08:15;;;;;;;193.07;42.90;;;0.40;99.90;;;;;;5044049;28;20686;-89
2021/11/07 01:11:13;;;;;;;169.05;42.55;;;0.40;99.90;;;;;;5033325;28;20073;-89
2021/11/07 01:14:01;;;;;;;179.05;42.40;;;0.30;99.90;;;;;;5045043;28;20052;-89
2021/11/07 01:16:48;;;;;;;183.57;41.90;;;0.30;99.90;;;;;;5042373;28;20109;-89
2021/11/07 01:19:39;;;;;;;246.13;44.88;;;0.30;99.90;;;;;;5067339;28;20041;-90
2021/11/07 01:22:43;;;;;;;;;;;0.30;99.90;;;;;;5068849;28;20087;-89
2021/11/07 01:25:34;;;;;;;182.80;42.03;;;0.30;99.90;;;;;;5078423;28;19967;-90
2021/11/07 01:28:25;;;;;;;201.45;46.33;;;0.30;99.90;;;;;;5050614;28;20056;-89
2021/11/07 01:31:13;;;;;;;167.27;47.35;;;0.20;99.90;;;;;;5076223;28;20060;-89
2021/11/07 01:34:04;;;;;;;149.57;47.22;;;0.30;99.90;;;;;;5053948;28;20047;-89
2021/11/07 01:36:59;;;;;;;166.70;49.47;;;0.30;99.90;;;;;;5070637;28;20113;-89
2021/11/07 01:40:08;;;;;;;162.93;50.35;;;0.40;99.90;;;;;;5076163;28;20052;-89
2021/11/07 01:42:59;;;;;;;;;;;0.40;99.90;;;;;;5065980;28;20373;-89
2021/11/07 01:46:06;;;;;;;161.10;46.55;;;0.40;99.90;;;;;;5049634;28;19908;-88
2021/11/07 01:49:10;;;;;;;169.88;47.55;;;0.50;99.90;;;;;;5060186;28;20033;-89
2021/11/07 01:52:01;;;;;;;167.95;48.42;;;0.50;99.90;;;;;;5071174;28;20045;-90
2021/11/07 01:57:49;;;;;;;174.18;47.35;;;0.50;99.90;;;;;;5060394;28;20099;-90
2021/11/07 02:00:42;;;;;;;140.45;44.13;;;0.50;99.90;;;;;;5066494;28;20037;-89
2021/11/07 02:03:41;;;;;;;115.07;42.20;;;0.50;99.90;;;;;;5080273;28;20048;-89
2021/11/07 02:06:28;;;;;;;134.57;45.72;;;0.50;99.90;;;;;;5062681;28;20041;-89
2021/11/07 02:09:16;;;;;;;136.80;45.08;;;0.60;99.90;;;;;;5068373;28;20053;-89
2021/11/07 02:12:05;;;;;;;127.07;45.38;;;0.70;99.90;;;;;;5066778;28;20045;-90
2021/11/07 02:14:53;;;;;;;123.82;44.72;;;0.80;99.90;;;;;;5077819;28;20045;-89
2021/11/07 02:17:45;;;;;;;128.05;45.47;;;0.80;99.90;;;;;;5050134;28;20476;-90
2021/11/07 02:20:40;;;;;;;126.15;45.28;;;0.90;99.90;;;;;;5059640;28;20072;-89
2021/11/07 02:23:29;;;;;;;132.85;46.78;;;0.80;99.90;;;;;;5049798;28;20124;-90
2021/11/07 02:26:16;;;;;;;147.63;46.00;;;0.80;99.90;;;;;;5049565;28;20084;-91
2021/11/07 02:29:04;;;;;;;150.50;47.92;;;0.70;99.90;;;;;;5045249;28;20064;-90
2021/11/07 02:31:55;;;;;;;133.57;46.75;;;0.70;99.90;;;;;;5068402;28;20052;-88
2021/11/07 02:34:44;;;;;;;128.07;46.05;;;0.70;99.90;;;;;;5067105;28;20048;-88
2021/11/07 02:37:34;;;;;;;124.88;44.47;;;0.70;99.90;;;;;;5068642;28;20068;-90
2021/11/07 02:40:22;;;;;;;115.10;41.80;;;0.70;99.90;;;;;;5067683;28;20044;-89
2021/11/07 02:43:09;;;;;;;106.22;40.67;;;0.70;99.90;;;;;;5045131;28;20048;-88
2021/11/07 02:45:58;;;;;;;123.68;44.65;;;0.80;99.90;;;;;;5066682;28;20053;-88
2021/11/07 02:48:49;;;;;;;118.80;44.05;;;0.80;99.90;;;;;;5040066;28;20247;-88
2021/11/07 02:51:37;;;;;;;110.68;43.28;;;0.80;99.90;;;;;;5062627;28;20037;-90
2021/11/07 02:54:25;;;;;;;120.50;44.42;;;0.90;99.90;;;;;;5066582;28;20048;-89
2021/11/07 02:57:17;;;;;;;122.63;45.20;;;0.90;99.90;;;;;;5052407;28;20041;-88
2021/11/07 03:00:08;;;;;;;121.35;46.63;;;0.90;99.90;;;;;;5079547;28;20053;-90
2021/11/07 03:02:56;;;;;;;123.90;46.72;;;0.90;99.90;;;;;;5063742;28;20051;-90
2021/11/07 03:05:52;;;;;;;124.72;44.55;;;0.90;99.90;;;;;;5051957;28;20041;-90
2021/11/07 03:08:42;;;;;;;126.63;45.15;;;0.90;99.90;;;;;;5057356;28;20099;-90
2021/11/07 03:11:31;;;;;;;127.53;46.45;;;0.80;99.90;;;;;;5046133;28;20029;-87
2021/11/07 03:14:22;;;;;;;118.30;44.95;;;0.80;99.90;;;;;;5070250;28;20041;-88
2021/11/07 03:17:14;;;;;;;128.68;45.15;;;0.80;99.90;;;;;;5073064;28;20079;-89
2021/11/07 03:20:01;;;;;;;129.88;47.08;;;0.80;99.90;;;;;;5074741;28;20056;-89
2021/11/07 03:22:50;;;;;;;120.07;44.72;;;0.80;99.90;;;;;;5067444;28;20044;-89
2021/11/07 03:25:48;;;;;;;137.55;46.83;;;0.70;99.90;;;;;;5054968;28;20037;-89
2021/11/07 03:28:41;;;;;;;117.63;41.90;;;0.70;99.90;;;;;;5036240;28;20033;-88
2021/11/07 03:34:45;;;;;;;116.32;41.15;;;0.60;99.90;;;;;;5031862;28;20053;-88
2021/11/07 03:37:37;;;;;;;110.55;42.13;;;0.60;99.90;;;;;;5029428;28;20091;-86
2021/11/07 03:40:27;;;;;;;126.40;43.13;;;0.60;99.90;;;;;;5044041;28;20045;-88
2021/11/07 03:43:25;;;;;;;116.43;42.25;;;0.60;99.90;;;;;;5034758;28;20080;-89
2021/11/07 03:46:14;;;;;;;126.25;42.60;;;0.70;99.90;;;;;;5054729;28;20042;-89
2021/11/07 03:49:03;;;;;;;133.82;46.50;;;0.70;99.90;;;;;;5050951;28;20048;-89
2021/11/07 03:51:53;;;;;;;123.53;42.78;;;0.80;99.90;;;;;;5038557;28;20141;-89
2021/11/07 03:54:42;;;;;;;125.95;44.30;;;0.80;99.90;;;;;;5043238;28;20064;-89
2021/11/07 03:57:30;;;;;;;125.57;43.03;;;0.90;99.90;;;;;;5046186;28;20105;-89
2021/11/07 04:00:20;;;;;;;129.75;45.72;;;0.80;99.90;;;;;;5043928;28;20042;-88
2021/11/07 04:03:08;;;;;;;110.35;41.88;;;0.80;99.90;;;;;;5032686;28;20053;-90
2021/11/07 04:05:55;;;;;;;121.03;44.13;;;0.80;99.90;;;;;;5047581;28;20037;-90
2021/11/07 04:08:44;;;;;;;118.68;43.42;;;0.80;99.90;;;;;;5067432;28;20049;-88
2021/11/07 04:11:31;;;;;;;121.78;44.92;;;0.80;99.90;;;;;;5041374;28;20045;-88
2021/11/07 04:14:19;;;;;;;138.00;46.85;;;0.80;99.90;;;;;;5052790;28;20033;-88
2021/11/07 04:17:07;;;;;;;124.70;43.03;;;0.80;99.90;;;;;;5042081;28;20033;-91
2021/11/07 04:19:54;;;;;;;116.03;41.42;;;0.80;99.90;;;;;;5056888;28;20037;-89
2021/11/07 04:22:46;;;;;;;107.03;40.08;;;0.90;99.90;;;;;;5057891;28;20054;-90
2021/11/07 04:25:36;;;;;;;103.47;40.70;;;0.90;99.90;;;;;;5040342;28;20117;-89
2021/11/07 04:28:31;;;;;;;90.18;36.80;;;1.10;99.90;;;;;;5038966;28;20148;-89
2021/11/07 04:31:19;;;;;;;86.78;34.80;;;1.10;99.90;;;;;;5033220;28;20069;-89
2021/11/07 04:34:06;;;;;;;95.03;38.70;;;1.20;99.90;;;;;;5034389;28;20068;-89
2021/11/07 04:36:54;;;;;;;81.35;34.50;;;1.20;99.90;;;;;;5032459;28;20046;-89
2021/11/07 04:39:42;;;;;;;83.93;32.60;;;1.10;99.90;;;;;;5041399;28;20497;-89
2021/11/07 04:42:29;;;;;;;79.90;32.60;;;1.10;99.90;;;;;;5056177;28;20061;-88
2021/11/07 04:45:17;;;;;;;86.28;32.42;;;1.10;99.90;;;;;;5031834;28;20598;-88
2021/11/07 04:48:04;;;;;;;87.38;33.03;;;1.10;99.90;;;;;;5047787;28;20056;-87
2021/11/07 04:50:51;;;;;;;85.43;32.55;;;1.10;99.90;;;;;;5023991;28;20042;-87
2021/11/07 04:53:39;;;;;;;92.68;33.42;;;1.00;99.90;;;;;;5037173;28;20045;-89
2021/11/07 04:56:27;;;;;;;93.60;33.03;;;1.00;99.90;;;;;;5041473;28;20037;-88
2021/11/07 04:59:15;;;;;;;87.65;34.08;;;0.90;99.90;;;;;;5016602;28;20111;-89
2021/11/07 05:02:06;;;;;;;90.25;34.03;;;0.90;99.90;;;;;;5048173;28;20067;-89
2021/11/07 05:04:54;;;;;;;96.63;33.22;;;0.90;99.90;;;;;;5049761;28;20383;-88
2021/11/07 05:07:41;;;;;;;96.50;32.63;;;0.80;99.90;;;;;;5060396;28;20037;-88
2021/11/07 05:10:29;;;;;;;103.93;35.42;;;0.80;99.90;;;;;;5045659;28;20124;-89
2021/11/07 05:13:16;;;;;;;102.25;34.05;;;0.80;99.90;;;;;;5050045;28;20075;-89
2021/11/07 05:16:06;;;;;;;94.07;34.38;;;0.80;99.90;;;;;;5058425;28;20053;-87
2021/11/07 05:18:54;;;;;;;86.97;32.53;;;0.80;99.90;;;;;;5021560;28;20049;-89
2021/11/07 05:21:41;;;;;;;99.30;34.53;;;0.80;99.90;;;;;;5055036;28;20748;-89
2021/11/07 05:24:33;;;;;;;87.53;32.92;;;0.90;99.90;;;;;;5073570;28;20725;-89
2021/11/07 05:27:21;;;;;;;92.57;34.33;;;1.00;99.90;;;;;;5065853;28;20068;-90
2021/11/07 05:30:11;;;;;;;105.78;35.80;;;1.00;99.90;;;;;;5063150;28;20100;-88
2021/11/07 05:33:03;;;;;;;103.13;35.55;;;1.00;99.90;;;;;;5050508;28;20071;-88
2021/11/07 05:35:50;;;;;;;104.90;36.67;;;1.00;99.90;;;;;;5066027;28;20072;-90
2021/11/07 05:38:37;;;;;;;101.80;38.20;;;1.00;99.90;;;;;;5041124;28;20045;-88
2021/11/07 05:41:27;;;;;;;114.43;38.85;;;1.00;99.90;;;;;;5068955;28;20053;-89
2021/11/07 05:44:14;;;;;;;118.00;39.00;;;1.00;99.90;;;;;;5059032;28;20064;-90
2021/11/07 05:47:02;;;;;;;112.53;38.85;;;1.00;99.90;;;;;;5066466;28;20044;-90
2021/11/07 05:49:49;;;;;;;118.20;38.67;;;1.00;99.90;;;;;;5057228;28;20110;-89
2021/11/07 05:52:39;;;;;;;119.85;42.53;;;1.00;99.90;;;;;;5081811;28;20028;-89
2021/11/07 05:55:28;;;;;;;116.53;40.58;;;1.00;99.90;;;;;;5084279;28;20029;-89
2021/11/07 05:58:16;;;;;;;113.57;40.72;;;1.00;99.90;;;;;;5076129;28;20025;-89
2021/11/07 06:01:09;;;;;;;123.68;41.60;;;0.90;99.90;;;;;;5063042;28;20094;-88
2021/11/07 06:03:56;;;;;;;117.90;41.20;;;0.90;99.90;;;;;;5070162;28;20079;-88
2021/11/07 06:06:45;;;;;;;119.05;41.17;;;0.90;99.90;;;;;;5074380;28;20041;-89
2021/11/07 06:09:33;;;;;;;111.22;41.38;;;0.80;99.90;;;;;;5056060;28;20053;-89
2021/11/07 06:12:23;;;;;;;127.75;45.17;;;0.80;99.90;;;;;;5055212;28;20084;-89
2021/11/07 06:15:13;;;;;;;120.82;43.05;;;0.80;99.90;;;;;;5069361;28;20060;-89
2021/11/07 06:18:00;;;;;;;118.25;42.13;;;0.80;99.90;;;;;;5065428;28;20048;-88
2021/11/07 06:20:47;;;;;;;125.85;44.50;;;0.80;99.90;;;;;;5064346;28;20046;-89
2021/11/07 06:23:35;;;;;;;113.03;41.60;;;0.70;99.90;;;;;;5074205;28;20033;-88
2021/11/07 06:26:23;;;;;;;120.40;44.55;;;0.80;99.90;;;;;;5069711;28;20198;-89
2021/11/07 06:29:13;;;;;;;110.68;41.53;;;0.80;99.90;;;;;;5051801;28;20091;-88
2021/11/07 06:32:00;;;;;;;121.15;44.25;;;0.90;99.90;;;;;;5077399;28;20045;-88
2021/11/07 06:34:47;;;;;;;119.68;45.47;;;0.90;99.90;;;;;;5047700;28;20126;-88
2021/11/07 06:37:35;;;;;;;121.70;44.75;;;0.90;99.90;;;;;;5043742;28;20104;-89
2021/11/07 06:40:26;;;;;;;120.28;44.13;;;0.90;99.90;;;;;;5044793;28;20118;-88
2021/11/07 06:43:14;;;;;;;114.20;43.58;;;1.00;99.90;;;;;;5065409;28;20468;-88
2021/11/07 06:46:05;;;;;;;120.72;43.28;;;1.00;99.90;;;;;;5052970;28;20041;-88
2021/11/07 06:48:54;;;;;;;123.20;43.22;;;1.00;99.90;;;;;;5056423;28;20162;-89
2021/11/07 06:51:43;;;;;;;118.25;45.00;;;1.10;99.90;;;;;;5066713;28;20057;-89
2021/11/07 06:54:31;;;;;;;122.38;44.38;;;1.10;99.90;;;;;;5050716;28;20132;-88
2021/11/07 06:57:21;;;;;;;118.93;43.53;;;1.10;99.90;;;;;;5040005;28;20041;-90
2021/11/07 07:04:21;;;;;;;114.40;44.15;;;1.40;99.90;;;;;;5054910;28;20060;-87
2021/11/07 07:07:51;;;;;;;110.65;42.95;;;1.70;99.90;;;;;;5051571;28;20060;-88
2021/11/07 07:11:28;;;;;;;105.15;41.08;;;1.80;99.90;;;;;;5033861;28;20373;-88
2021/11/07 07:29:07;;;;;;;104.75;41.50;;;2.10;99.90;;;;;;5007821;28;20481;-86
2021/11/07 07:35:04;;;;;;;83.78;35.60;;;2.30;99.90;;;;;;5012829;28;20065;-87
2021/11/07 07:37:57;;;;;;;85.33;36.07;;;2.40;99.90;;;;;;5028359;28;20266;-87
2021/11/07 07:40:45;;;;;;;73.93;34.38;;;2.50;99.90;;;;;;5025876;28;20123;-85
2021/11/07 07:43:34;;;;;;;61.08;29.83;;;2.60;99.90;;;;;;5000003;28;20105;-85
2021/11/07 07:46:22;;;;;;;63.58;31.65;;;2.60;99.90;;;;;;5025442;28;20187;-87
2021/11/07 07:49:13;;;;;;;62.13;29.67;;;2.70;99.90;;;;;;5022951;28;20041;-86
2021/11/07 07:52:04;;;;;;;56.35;28.00;;;2.70;99.90;;;;;;5011275;28;20049;-86
2021/11/07 07:54:52;;;;;;;54.50;28.10;;;2.90;99.90;;;;;;5026026;28;20092;-86
2021/11/07 07:57:40;;;;;;;48.17;25.65;;;3.10;99.90;;;;;;5027202;28;20052;-86
2021/11/07 08:00:27;;;;;;;45.50;25.73;;;3.20;99.90;;;;;;5029642;28;20060;-86
2021/11/07 08:03:15;;;;;;;37.80;22.52;;;3.50;99.90;;;;;;5016990;28;20594;-84
2021/11/07 08:06:02;;;;;;;44.05;22.58;;;3.60;99.90;;;;;;5021140;28;20180;-87
2021/11/07 08:08:51;;;;;;;39.70;21.42;;;3.50;99.90;;;;;;5042922;28;20041;-86
2021/11/07 08:11:40;;;;;;;38.03;20.63;;;3.50;99.90;;;;;;5031456;28;20069;-86
2021/11/07 08:14:27;;;;;;;38.20;21.95;;;3.40;99.90;;;;;;5039964;28;20041;-85
2021/11/07 08:17:18;;;;;;;39.13;21.85;;;3.20;99.90;;;;;;5003569;28;20046;-84
2021/11/07 08:20:09;;;;;;;38.33;21.77;;;3.00;99.90;;;;;;5009564;28;20104;-84
2021/11/07 08:22:56;;;;;;;42.45;22.25;;;3.00;99.90;;;;;;5053502;28;20067;-86
2021/11/07 08:25:43;;;;;;;43.10;23.73;;;2.90;99.90;;;;;;5052638;28;20100;-87
2021/11/07 08:28:32;;;;;;;43.60;22.98;;;2.90;99.90;;;;;;5050213;28;20045;-86
2021/11/07 08:31:23;;;;;;;41.63;23.45;;;2.90;99.90;;;;;;5059207;28;20124;-86
2021/11/07 08:34:10;;;;;;;38.28;22.10;;;2.90;99.90;;;;;;5059592;28;20053;-86
2021/11/07 08:37:09;;;;;;;39.70;22.48;;;3.00;99.90;;;;;;5052695;28;20111;-86
2021/11/07 08:40:00;;;;;;;39.42;21.65;;;2.90;99.90;;;;;;5052079;28;20053;-88
2021/11/07 08:43:08;;;;;;;42.38;21.70;;;2.90;99.90;;;;;;5052225;28;20075;-86
2021/11/07 09:10:48;;;;;;;28.38;17.48;;;3.80;99.90;;;;;;5052564;28;20118;-89
2021/11/07 09:13:38;;;;;;;29.63;18.00;;;3.90;99.90;;;;;;5040063;28;20131;-86
2021/11/07 09:16:26;;;;;;;28.25;17.20;;;4.00;99.90;;;;;;5054665;28;20537;-87
2021/11/07 09:19:17;;;;;;;26.77;16.58;;;4.00;99.90;;;;;;5038401;28;20049;-87
2021/11/07 09:22:19;;;;;;;22.15;14.07;;;4.10;99.90;;;;;;5052801;28;20096;-86
2021/11/07 09:25:16;;;;;;;20.08;13.43;;;4.40;99.90;;;;;;5053282;28;20045;-87
2021/11/07 09:31:04;;;;;;;15.27;10.00;;;5.90;99.90;;;;;;5055565;28;20057;-87
2021/11/07 09:36:55;;;;;;;12.18;8.88;;;7.80;99.90;;;;;;5053234;28;20058;-85
2021/11/07 09:39:51;;;;;;;13.05;9.23;;;8.20;99.90;;;;;;5054982;28;20052;-86
2021/11/07 09:45:51;;;;;;;14.10;10.02;;;7.50;99.90;;;;;;5056795;28;20466;-88
2021/11/07 09:48:42;;;;;;;15.60;10.07;;;7.10;99.90;;;;;;5040067;28;20140;-87
2021/11/07 09:51:34;;;;;;;17.45;10.57;;;6.80;99.90;;;;;;5054946;28;20079;-88
2021/11/07 09:54:25;;;;;;;15.57;11.23;;;6.60;99.90;;;;;;5040588;28;20111;-87
2021/11/07 09:57:22;;;;;;;17.08;10.02;;;6.50;99.90;;;;;;5054602;28;20056;-88
2021/11/07 10:00:17;;;;;;;12.93;9.32;;;6.60;99.90;;;;;;5054158;28;20037;-89
2021/11/07 10:03:06;;;;;;;14.35;9.50;;;6.80;99.90;;;;;;5066816;28;20182;-88
2021/11/07 10:05:57;;;;;;;13.52;9.70;;;7.00;99.90;;;;;;5053537;28;20072;-88
2021/11/07 10:08:49;;;;;;;10.50;7.70;;;7.30;99.90;;;;;;5054029;28;20106;-87
2021/11/07 10:12:10;;;;;;;9.02;7.22;;;7.50;99.90;;;;;;5040132;28;20049;-87
2021/11/07 10:15:04;;;;;;;11.93;7.00;;;7.60;99.90;;;;;;5055098;28;20198;-87
2021/11/07 10:18:04;;;;;;;10.05;7.63;;;7.90;99.90;;;;;;5055021;28;20056;-87
2021/11/07 10:20:59;;;;;;;8.65;6.97;;;7.80;99.90;;;;;;5041362;28;20133;-88
2021/11/07 10:24:00;;;;;;;13.88;8.75;;;7.60;99.90;;;;;;5032811;28;20128;-87
2021/11/07 10:26:55;;;;;;;11.23;7.25;;;7.70;99.90;;;;;;5034053;28;20073;-88
2021/11/07 10:29:49;;;;;;;12.50;9.13;;;8.10;99.90;;;;;;5047012;28;20118;-87
2021/11/07 10:32:54;;;;;;;7.03;6.05;;;8.60;99.90;;;;;;5047912;28;20073;-88
2021/11/07 10:53:28;;;;;;;4.90;3.90;;;12.40;94.70;;;;;;5043729;28;20064;-88
2021/11/07 10:56:15;;;;;;;7.20;3.65;;;13.10;91.10;;;;;;5047904;28;20362;-90
2021/11/07 10:59:16;;;;;;;5.00;3.60;;;12.90;90.40;;;;;;5053451;28;20041;-89
2021/11/07 11:02:34;;;;;;;3.55;2.72;;;12.70;90.60;;;;;;5046441;28;20052;-90
2021/11/07 11:05:29;;;;;;;4.45;2.38;;;13.00;87.40;;;;;;5044592;28;20083;-87
2021/11/07 11:08:28;;;;;;;3.10;2.15;;;12.80;87.30;;;;;;5062076;28;20374;-90
2021/11/07 11:11:28;;;;;;;5.40;1.85;;;12.70;88.10;;;;;;5047876;28;20122;-90
2021/11/07 11:14:24;;;;;;;2.60;1.63;;;13.20;82.00;;;;;;5032811;28;20104;-92
2021/11/07 11:17:44;;;;;;;10.05;1.58;;;13.20;77.30;;;;;;5024482;28;20071;-90
2021/11/07 11:21:26;;;;;;;2.25;1.40;;;12.70;78.20;;;;;;5033712;28;20049;-88
2021/11/07 11:30:58;;;;;;;3.00;1.30;;;10.90;87.10;;;;;;5049827;28;20033;-90
2021/11/07 11:33:50;;;;;;;2.13;1.13;;;10.40;89.80;;;;;;5041934;28;20128;-90
2021/11/07 11:43:12;;;;;;;2.03;1.25;;;9.90;90.70;;;;;;5007813;28;20053;-89
2021/11/07 11:46:23;;;;;;;2.38;1.30;;;9.70;90.80;;;;;;5010316;28;20061;-89
2021/11/07 11:49:40;;;;;;;1.27;1.00;;;9.50;91.40;;;;;;5014292;28;20061;-90
2021/11/07 11:52:36;;;;;;;3.22;1.40;;;9.30;92.10;;;;;;5039827;28;20056;-88
2021/11/07 11:58:24;;;;;;;1.70;1.60;;;9.10;94.70;;;;;;5034310;28;20097;-89
2021/11/07 12:01:19;;;;;;;2.05;1.65;;;9.20;95.20;;;;;;5027570;28;20107;-87
2021/11/07 12:04:14;;;;;;;1.85;1.38;;;9.50;95.50;;;;;;5032868;28;20486;-90
2021/11/07 12:07:20;;;;;;;1.80;1.50;;;9.70;95.80;;;;;;5038266;28;20053;-87
2021/11/07 12:10:42;;;;;;;1.30;1.20;;;9.70;96.90;;;;;;5038889;28;20427;-89
2021/11/07 12:13:46;;;;;;;2.03;1.10;;;9.40;99.00;;;;;;5042114;28;20101;-89
2021/11/07 12:16:44;;;;;;;3.92;1.40;;;9.50;99.90;;;;;;5034532;28;20053;-89
2021/11/07 12:19:45;;;;;;;2.45;1.60;;;9.80;99.90;;;;;;5040868;28;20061;-88
2021/11/07 12:22:35;;;;;;;1.40;1.30;;;9.90;99.90;;;;;;5059162;28;20057;-88
2021/11/07 12:25:28;;;;;;;2.85;1.13;;;9.90;99.90;;;;;;5061788;28;20202;-88
2021/11/07 12:28:21;;;;;;;1.20;1.10;;;10.00;99.90;;;;;;5061732;28;20048;-88
2021/11/07 12:31:08;;;;;;;;;;;10.10;99.90;;;;;;5060628;28;20091;-87
2021/11/07 12:34:12;;;;;;;1.83;1.00;;;10.20;99.90;;;;;;5079078;28;19943;-90
2021/11/07 12:40:34;;;;;;;2.17;1.10;;;10.40;99.90;;;;;;5059784;28;20041;-90
2021/11/07 12:43:39;;;;;;;3.40;1.63;;;10.50;99.90;;;;;;5079279;28;20107;-89
2021/11/07 12:51:00;;;;;;;;;;;;;;;;;;;;;
2021/11/07 12:54:00;;;;;;;1.08;0.98;;;11.30;99.50;;;;;;5013134;28;20045;-90
2021/11/07 12:56:56;;;;;;;1.33;1.08;;;11.30;98.70;;;;;;5062515;28;20144;-88
2021/11/07 12:59:45;;;;;;;2.10;1.15;;;11.30;98.10;;;;;;5045731;28;20049;-86
2021/11/07 13:02:34;;;;;;;3.80;2.20;;;10.80;99.40;;;;;;5061945;28;20053;-89
2021/11/07 13:05:33;;;;;;;2.97;1.30;;;10.70;99.90;;;;;;5055076;28;20053;-86
2021/11/07 13:08:31;;;;;;;1.33;1.00;;;10.60;99.90;;;;;;5061385;28;20056;-88
2021/11/07 13:11:27;;;;;;;2.50;1.30;;;10.50;99.90;;;;;;5055408;28;20045;-88
2021/11/07 13:14:34;;;;;;;0.88;0.88;;;10.50;99.90;;;;;;5069936;28;20111;-89
2021/11/07 13:26:30;;;;;;;1.77;1.50;;;10.80;99.90;;;;;;5056467;28;20041;-87
2021/11/07 13:29:29;;;;;;;3.65;1.55;;;10.80;99.90;;;;;;5066261;28;20041;-89
2021/11/07 13:35:26;;;;;;;1.60;1.23;;;10.30;99.90;;;;;;5062022;28;20048;-88
2021/11/07 13:38:20;;;;;;;2.22;1.27;;;10.50;99.90;;;;;;5062379;28;20049;-87
2021/11/07 13:41:18;;;;;;;3.22;2.15;;;10.60;99.90;;;;;;5045937;28;20057;-87
2021/11/07 13:44:16;;;;;;;1.33;1.00;;;10.90;99.90;;;;;;5061264;28;20044;-88
2021/11/07 13:47:06;;;;;;;1.70;0.90;;;11.40;99.90;;;;;;5065543;28;20090;-88
2021/11/07 13:49:56;;;;;;;0.80;0.80;;;12.60;99.90;;;;;;5050402;28;20081;-87
2021/11/07 13:52:52;;;;;;;2.85;2.00;;;13.40;99.20;;;;;;5051758;28;20430;-88
2021/11/07 13:55:42;;;;;;;1.20;0.90;;;13.00;99.00;;;;;;5074258;28;20442;-87
2021/11/07 13:58:33;;;;;;;1.55;0.95;;;12.00;99.90;;;;;;5062516;28;20846;-87
2021/11/07 14:01:23;;;;;;;1.13;0.90;;;11.20;99.90;;;;;;5052854;28;20142;-88
2021/11/07 14:04:13;;;;;;;1.58;0.90;;;10.60;99.90;;;;;;5068073;28;20588;-87
2021/11/07 14:07:18;;;;;;;1.30;1.10;;;10.30;99.90;;;;;;5072044;28;20029;-87
2021/11/07 14:10:16;;;;;;;4.30;1.63;;;10.00;99.90;;;;;;5059014;28;20038;-90
2021/11/07 14:31:14;;;;;;;2.00;1.63;;;9.20;99.90;;;;;;5055344;28;20059;-88
2021/11/07 15:00:01;;;;;;;5.53;3.92;;;8.30;99.90;;;;;;5045194;28;20025;-89
2021/11/07 15:03:53;;;;;;;4.93;2.47;;;8.10;99.90;;;;;;5045622;28;20040;-90
2021/11/07 15:15:40;;;;;;;3.25;2.20;;;7.90;99.90;;;;;;5066933;28;20087;-90
2021/11/07 15:24:38;;;;;;;3.55;2.65;;;7.80;99.90;;;;;;5050073;28;20040;-89
2021/11/07 15:27:29;;;;;;;3.78;2.47;;;7.70;99.90;;;;;;5061314;28;20291;-89
2021/11/07 15:30:20;;;;;;;5.77;3.00;;;7.70;99.90;;;;;;5074191;28;20041;-89
2021/11/07 15:37:11;;;;;;;6.25;3.70;;;7.60;99.90;;;;;;5036772;28;20123;-89
2021/11/07 15:40:53;;;;;;;7.15;5.35;;;7.60;99.90;;;;;;5039710;28;20147;-88
2021/11/07 15:44:09;;;;;;;5.88;3.45;;;7.60;99.90;;;;;;5045736;28;20041;-90
2021/11/07 15:47:37;;;;;;;6.68;2.72;;;7.60;99.90;;;;;;5042732;28;20037;-91
2021/11/07 15:51:37;;;;;;;5.60;3.63;;;7.60;99.90;;;;;;5041165;28;20037;-90
2021/11/07 15:59:37;;;;;;;5.18;2.78;;;7.60;99.90;;;;;;5039512;28;20025;-91
2021/11/07 16:07:18;;;;;;;4.45;2.65;;;7.50;99.90;;;;;;5065548;28;20055;-91
2021/11/07 16:11:01;;;;;;;8.73;2.58;;;7.50;99.90;;;;;;5060925;28;20121;-90
2021/11/07 16:20:00;;;;;;;3.40;2.50;;;7.40;99.90;;;;;;4969682;28;20048;-89
2021/11/07 16:23:11;;;;;;;5.63;3.47;;;7.30;99.90;;;;;;5080434;28;20029;-93
2021/11/07 16:26:22;;;;;;;5.10;3.42;;;7.20;99.90;;;;;;5060698;28;20052;-89
2021/11/07 16:29:25;;;;;;;;;;;;;;;;;;;;;
2021/11/07 16:35:11;;;;;;;6.28;3.47;;;7.20;99.90;;;;;;5069963;28;20060;-89
2021/11/07 16:38:03;;;;;;;;;;;7.10;99.90;;;;;;5044638;28;20140;-89
2021/11/07 16:40:59;;;;;;;5.18;3.17;;;7.10;99.90;;;;;;5056442;28;20314;-88
2021/11/07 16:43:59;;;;;;;;;;;;;;;;;;;;;
2021/11/07 16:46:59;;;;;;;6.22;3.28;;;7.20;99.90;;;;;;5074971;28;20073;-89
2021/11/07 16:49:53;;;;;;;7.18;3.63;;;7.20;99.90;;;;;;5071201;28;20701;-90
2021/11/07 16:52:45;;;;;;;7.22;3.70;;;7.20;99.90;;;;;;5086496;28;20060;-89
2021/11/07 16:55:52;;;;;;;7.07;3.58;;;7.10;99.90;;;;;;5059873;28;20088;-91
2021/11/07 17:02:21;;;;;;;;;;;;;;;;;;;;;
2021/11/07 17:06:15;;;;;;;;;;;;;;;;;;;;;
2021/11/07 17:09:51;;;;;;;8.20;4.47;;;7.00;99.90;;;;;;4954339;29;20114;-91
2021/11/07 17:13:31;;;;;;;11.27;5.13;;;7.00;99.90;;;;;;4870884;29;20128;-91
2021/11/07 17:16:44;;;;;;;;;;;;;;;;;;;;;
2021/11/07 17:26:59;;;;;;;6.38;4.68;;;7.00;99.90;;;;;;4928259;29;20139;-90
2021/11/07 17:30:29;;;;;;;;;;;;;;;;;;;;;
2021/11/07 17:36:47;;;;;;;13.32;7.25;;;6.80;99.90;;;;;;4977651;28;20111;-92
2021/11/07 17:40:21;;;;;;;9.07;5.38;;;6.70;99.90;;;;;;4951059;29;20131;-91
2021/11/07 17:56:25;;;;;;;6.10;4.38;;;6.70;99.90;;;;;;5004892;28;20042;-90
2021/11/07 17:59:22;;;;;;;5.55;4.13;;;6.70;99.90;;;;;;5063443;28;20143;-91
2021/11/07 18:02:45;;;;;;;;;;;;;;;;;;;;;
2021/11/07 18:05:43;;;;;;;10.98;6.00;;;6.70;99.90;;;;;;5078549;28;20060;-91
2021/11/07 18:12:14;;;;;;;6.40;4.70;;;6.70;99.90;;;;;;5068843;28;20048;-91
2021/11/07 18:15:11;;;;;;;7.70;4.10;;;6.70;99.90;;;;;;5068244;28;20096;-90
2021/11/07 18:18:10;;;;;;;6.60;4.55;;;6.70;99.90;;;;;;5048857;28;20259;-91
2021/11/07 18:21:00;;;;;;;5.53;3.95;;;6.80;99.90;;;;;;5054804;28;20045;-87
2021/11/07 18:24:00;;;;;;;7.10;3.72;;;6.70;99.90;;;;;;5097406;28;20037;-91
2021/11/07 18:26:54;;;;;;;6.35;3.92;;;6.80;99.90;;;;;;5050260;28;20053;-91
2021/11/07 18:30:03;;;;;;;;;;;;;;;;;;;;;
2021/11/07 18:33:12;;;;;;;5.43;3.63;;;6.80;99.90;;;;;;5055517;28;20037;-91
2021/11/07 18:36:03;;;;;;;4.95;3.75;;;6.80;99.90;;;;;;5053774;28;20426;-90
2021/11/07 18:38:50;;;;;;;5.13;3.80;;;6.80;99.90;;;;;;5066715;28;20041;-91
2021/11/07 18:41:41;;;;;;;7.55;3.72;;;6.80;99.90;;;;;;5042700;28;20032;-91
2021/11/07 18:44:42;;;;;;;3.75;3.42;;;6.80;99.90;;;;;;5058075;28;20041;-91
2021/11/07 18:47:32;;;;;;;4.85;3.80;;;6.60;99.90;;;;;;5065815;28;20144;-91
2021/11/07 18:50:29;;;;;;;5.90;4.30;;;6.60;99.90;;;;;;5039665;28;20113;-92
2021/11/07 18:53:30;;;;;;;5.00;3.90;;;6.50;99.90;;;;;;5050595;28;20049;-91
2021/11/07 18:56:48;;;;;;;7.05;4.15;;;6.50;99.90;;;;;;4993820;28;20479;-91
2021/11/07 19:03:31;;;;;;;5.78;4.60;;;6.50;99.90;;;;;;4999097;28;20048;-91
2021/11/07 19:09:54;;;;;;;6.32;3.60;;;6.40;99.90;;;;;;4985513;28;20039;-89
2021/11/07 19:13:18;;;;;;;6.53;4.65;;;6.40;99.90;;;;;;4992499;28;20061;-91
2021/11/07 19:17:35;;;;;;;7.45;4.70;;;6.40;99.90;;;;;;5045020;28;20060;-90
2021/11/07 19:20:30;;;;;;;8.18;4.63;;;6.40;99.90;;;;;;5047536;28;20069;-91
2021/11/07 19:23:20;;;;;;;8.40;4.32;;;6.50;99.90;;;;;;5035844;28;20429;-89
2021/11/07 19:26:42;;;;;;;6.95;3.60;;;6.50;99.90;;;;;;5042279;28;20041;-90
2021/11/07 19:29:56;;;;;;;7.05;5.07;;;6.50;99.90;;;;;;5046845;28;20214;-92
2021/11/07 19:33:12;;;;;;;9.18;7.00;;;6.50;99.90;;;;;;5051518;28;20041;-91
2021/11/07 19:36:20;;;;;;;8.77;5.32;;;6.50;99.90;;;;;;5050115;28;20099;-91
2021/11/07 19:39:44;;;;;;;;;;;;;;;;;;;;;